sensor_id;sensor_type;location;lat;lon;timestamp;temperature;humidity
15977;DHT22;8091;51.914;12.786;2022-08-19T00:01:38;21.40;99.90
15977;DHT22;8091;51.914;12.786;2022-08-19T00:04:07;21.40;99.90
15977;DHT22;8091;51.914;12.786;2022-08-19T00:06:34;21.30;99.90
15977;DHT22;8091;51.914;12.786;2022-08-19T00:09:01;21.30;99.90
15977;DHT22;8091;51.914;12.786;2022-08-19T00:11:27;21.30;99.90
15977;DHT22;8091;51.914;12.786;2022-08-19T00:13:54;21.40;99.90
15977;DHT22;8091;51.914;12.786;2022-08-19T00:16:22;21.40;99.90
15977;DHT22;8091;51.914;12.786;2022-08-19T00:18:48;21.40;99.90
15977;DHT22;8091;51.914;12.786;2022-08-19T00:21:14;21.40;99.90
15977;DHT22;8091;51.914;12.786;2022-08-19T00:23:41;21.40;99.90
15977;DHT22;8091;51.914;12.786;2022-08-19T00:26:07;21.40;99.90
15977;DHT22;8091;51.914;12.786;2022-08-19T00:28:33;21.40;99.90
15977;DHT22;8091;51.914;12.786;2022-08-19T00:31:02;21.40;99.90
15977;DHT22;8091;51.914;12.786;2022-08-19T00:33:28;21.30;99.90
15977;DHT22;8091;51.914;12.786;2022-08-19T00:35:58;21.20;99.90
15977;DHT22;8091;51.914;12.786;2022-08-19T00:38:24;21.20;99.90
15977;DHT22;8091;51.914;12.786;2022-08-19T00:40:49;21.10;99.90
15977;DHT22;8091;51.914;12.786;2022-08-19T00:43:19;21.10;99.90
15977;DHT22;8091;51.914;12.786;2022-08-19T00:45:45;21.10;99.90
15977;DHT22;8091;51.914;12.786;2022-08-19T00:48:11;21.10;99.90
15977;DHT22;8091;51.914;12.786;2022-08-19T00:50:39;21.20;99.90
15977;DHT22;8091;51.914;12.786;2022-08-19T00:53:06;21.10;99.90
15977;DHT22;8091;51.914;12.786;2022-08-19T00:55:32;21.00;99.90
15977;DHT22;8091;51.914;12.786;2022-08-19T00:58:02;21.10;99.90
15977;DHT22;8091;51.914;12.786;2022-08-19T01:00:30;21.10;99.90
15977;DHT22;8091;51.914;12.786;2022-08-19T01:02:56;21.10;99.90
15977;DHT22;8091;51.914;12.786;2022-08-19T01:05:25;21.10;99.90
15977;DHT22;8091;51.914;12.786;2022-08-19T01:07:53;21.00;99.90
15977;DHT22;8091;51.914;12.786;2022-08-19T01:10:23;21.10;99.90
15977;DHT22;8091;51.914;12.786;2022-08-19T01:12:51;21.10;99.90
15977;DHT22;8091;51.914;12.786;2022-08-19T01:15:21;21.00;99.90
15977;DHT22;8091;51.914;12.786;2022-08-19T01:17:48;20.80;99.90
15977;DHT22;8091;51.914;12.786;2022-08-19T01:20:18;20.70;99.90
15977;DHT22;8091;51.914;12.786;2022-08-19T01:22:48;20.50;99.90
15977;DHT22;8091;51.914;12.786;2022-08-19T01:25:15;20.40;99.90
15977;DHT22;8091;51.914;12.786;2022-08-19T01:27:44;20.30;99.90
15977;DHT22;8091;51.914;12.786;2022-08-19T01:30:18;20.30;99.90
15977;DHT22;8091;51.914;12.786;2022-08-19T01:32:44;20.30;99.90
15977;DHT22;8091;51.914;12.786;2022-08-19T01:35:12;20.30;99.90
15977;DHT22;8091;51.914;12.786;2022-08-19T01:38:02;20.30;99.90
15977;DHT22;8091;51.914;12.786;2022-08-19T01:40:30;20.40;99.90
15977;DHT22;8091;51.914;12.786;2022-08-19T01:42:57;20.40;99.90
15977;DHT22;8091;51.914;12.786;2022-08-19T01:45:25;20.40;99.90
15977;DHT22;8091;51.914;12.786;2022-08-19T01:47:52;20.60;99.90
15977;DHT22;8091;51.914;12.786;2022-08-19T01:50:18;20.60;99.90
15977;DHT22;8091;51.914;12.786;2022-08-19T01:52:44;20.70;99.90
15977;DHT22;8091;51.914;12.786;2022-08-19T01:55:14;20.70;99.90
15977;DHT22;8091;51.914;12.786;2022-08-19T01:57:43;20.70;99.90
15977;DHT22;8091;51.914;12.786;2022-08-19T02:00:12;20.70;99.90
15977;DHT22;8091;51.914;12.786;2022-08-19T02:02:39;20.70;99.90
15977;DHT22;8091;51.914;12.786;2022-08-19T02:05:05;20.70;99.90
15977;DHT22;8091;51.914;12.786;2022-08-19T02:07:34;20.80;99.90
15977;DHT22;8091;51.914;12.786;2022-08-19T02:10:05;20.70;99.90
15977;DHT22;8091;51.914;12.786;2022-08-19T02:12:30;20.70;99.90
15977;DHT22;8091;51.914;12.786;2022-08-19T02:14:56;20.70;99.90
15977;DHT22;8091;51.914;12.786;2022-08-19T02:17:22;20.60;99.90
15977;DHT22;8091;51.914;12.786;2022-08-19T02:19:47;20.60;99.90
15977;DHT22;8091;51.914;12.786;2022-08-19T02:22:14;20.40;99.90
15977;DHT22;8091;51.914;12.786;2022-08-19T02:24:39;20.40;99.90
15977;DHT22;8091;51.914;12.786;2022-08-19T02:27:05;20.50;99.90
15977;DHT22;8091;51.914;12.786;2022-08-19T02:29:31;20.50;99.90
15977;DHT22;8091;51.914;12.786;2022-08-19T02:31:57;20.60;99.90
15977;DHT22;8091;51.914;12.786;2022-08-19T02:34:23;20.60;99.90
15977;DHT22;8091;51.914;12.786;2022-08-19T02:36:50;20.60;99.90
15977;DHT22;8091;51.914;12.786;2022-08-19T02:39:16;20.60;99.90
15977;DHT22;8091;51.914;12.786;2022-08-19T02:41:41;20.60;99.90
15977;DHT22;8091;51.914;12.786;2022-08-19T02:44:07;20.70;99.90
15977;DHT22;8091;51.914;12.786;2022-08-19T02:46:33;20.60;99.90
15977;DHT22;8091;51.914;12.786;2022-08-19T02:49:07;20.50;99.90
15977;DHT22;8091;51.914;12.786;2022-08-19T02:51:36;20.60;99.90
15977;DHT22;8091;51.914;12.786;2022-08-19T02:54:03;20.60;99.90
15977;DHT22;8091;51.914;12.786;2022-08-19T02:56:30;20.60;99.90
15977;DHT22;8091;51.914;12.786;2022-08-19T02:58:56;20.60;99.90
15977;DHT22;8091;51.914;12.786;2022-08-19T03:01:31;20.60;99.90
15977;DHT22;8091;51.914;12.786;2022-08-19T03:03:59;20.60;99.90
15977;DHT22;8091;51.914;12.786;2022-08-19T03:06:25;20.60;99.90
15977;DHT22;8091;51.914;12.786;2022-08-19T03:08:52;20.60;99.90
15977;DHT22;8091;51.914;12.786;2022-08-19T03:11:27;20.60;99.90
15977;DHT22;8091;51.914;12.786;2022-08-19T03:13:53;20.70;99.90
15977;DHT22;8091;51.914;12.786;2022-08-19T03:16:20;20.70;99.90
15977;DHT22;8091;51.914;12.786;2022-08-19T03:18:46;20.60;99.90
15977;DHT22;8091;51.914;12.786;2022-08-19T03:21:21;20.60;99.90
15977;DHT22;8091;51.914;12.786;2022-08-19T03:23:47;20.50;99.90
15977;DHT22;8091;51.914;12.786;2022-08-19T03:26:12;20.50;99.90
15977;DHT22;8091;51.914;12.786;2022-08-19T03:28:40;20.50;99.90
15977;DHT22;8091;51.914;12.786;2022-08-19T03:31:12;20.60;99.90
15977;DHT22;8091;51.914;12.786;2022-08-19T03:33:38;20.60;99.90
15977;DHT22;8091;51.914;12.786;2022-08-19T03:36:12;20.60;99.90
15977;DHT22;8091;51.914;12.786;2022-08-19T03:38:40;20.60;99.90
15977;DHT22;8091;51.914;12.786;2022-08-19T03:41:11;20.60;99.90
15977;DHT22;8091;51.914;12.786;2022-08-19T03:43:38;20.60;99.90
15977;DHT22;8091;51.914;12.786;2022-08-19T03:46:07;20.60;99.90
15977;DHT22;8091;51.914;12.786;2022-08-19T03:48:34;20.60;99.90
15977;DHT22;8091;51.914;12.786;2022-08-19T03:51:00;20.60;99.90
15977;DHT22;8091;51.914;12.786;2022-08-19T03:53:31;20.70;99.90
15977;DHT22;8091;51.914;12.786;2022-08-19T03:55:57;20.70;99.90
15977;DHT22;8091;51.914;12.786;2022-08-19T03:58:26;20.80;99.90
15977;DHT22;8091;51.914;12.786;2022-08-19T04:00:53;20.80;99.90
15977;DHT22;8091;51.914;12.786;2022-08-19T04:03:19;20.80;99.90
15977;DHT22;8091;51.914;12.786;2022-08-19T04:05:45;20.80;99.90
15977;DHT22;8091;51.914;12.786;2022-08-19T04:08:12;20.90;99.90
15977;DHT22;8091;51.914;12.786;2022-08-19T04:10:38;20.80;99.90
15977;DHT22;8091;51.914;12.786;2022-08-19T04:13:04;20.80;99.90
15977;DHT22;8091;51.914;12.786;2022-08-19T04:15:32;20.80;99.90
15977;DHT22;8091;51.914;12.786;2022-08-19T04:18:04;20.80;99.90
15977;DHT22;8091;51.914;12.786;2022-08-19T04:20:38;20.80;99.90
15977;DHT22;8091;51.914;12.786;2022-08-19T04:23:04;20.80;99.90
15977;DHT22;8091;51.914;12.786;2022-08-19T04:25:36;20.80;99.90
15977;DHT22;8091;51.914;12.786;2022-08-19T04:28:02;20.80;99.90
15977;DHT22;8091;51.914;12.786;2022-08-19T04:30:27;20.80;99.90
15977;DHT22;8091;51.914;12.786;2022-08-19T04:32:53;20.80;99.90
15977;DHT22;8091;51.914;12.786;2022-08-19T04:35:18;20.80;99.90
15977;DHT22;8091;51.914;12.786;2022-08-19T04:37:44;20.80;99.90
15977;DHT22;8091;51.914;12.786;2022-08-19T04:40:10;20.80;99.90
15977;DHT22;8091;51.914;12.786;2022-08-19T04:42:54;20.70;99.90
15977;DHT22;8091;51.914;12.786;2022-08-19T04:45:20;20.70;99.90
15977;DHT22;8091;51.914;12.786;2022-08-19T04:47:45;20.70;99.90
15977;DHT22;8091;51.914;12.786;2022-08-19T04:50:11;20.70;99.90
15977;DHT22;8091;51.914;12.786;2022-08-19T04:52:38;20.70;99.90
15977;DHT22;8091;51.914;12.786;2022-08-19T04:55:08;20.80;99.90
15977;DHT22;8091;51.914;12.786;2022-08-19T04:57:33;20.80;99.90
15977;DHT22;8091;51.914;12.786;2022-08-19T04:59:59;20.80;99.90
15977;DHT22;8091;51.914;12.786;2022-08-19T05:02:24;20.90;99.90
15977;DHT22;8091;51.914;12.786;2022-08-19T05:04:55;20.90;99.90
15977;DHT22;8091;51.914;12.786;2022-08-19T05:07:21;20.90;99.90
15977;DHT22;8091;51.914;12.786;2022-08-19T05:09:47;20.90;99.90
15977;DHT22;8091;51.914;12.786;2022-08-19T05:12:13;20.90;99.90
15977;DHT22;8091;51.914;12.786;2022-08-19T05:14:39;20.90;99.90
15977;DHT22;8091;51.914;12.786;2022-08-19T05:17:04;20.90;99.90
15977;DHT22;8091;51.914;12.786;2022-08-19T05:19:30;21.00;99.90
15977;DHT22;8091;51.914;12.786;2022-08-19T05:22:14;21.00;99.90
15977;DHT22;8091;51.914;12.786;2022-08-19T05:24:59;21.00;99.90
15977;DHT22;8091;51.914;12.786;2022-08-19T05:27:25;21.10;99.90
15977;DHT22;8091;51.914;12.786;2022-08-19T05:29:51;21.00;99.90
15977;DHT22;8091;51.914;12.786;2022-08-19T05:32:16;20.90;99.90
15977;DHT22;8091;51.914;12.786;2022-08-19T05:34:42;21.00;99.90
15977;DHT22;8091;51.914;12.786;2022-08-19T05:37:08;21.00;99.90
15977;DHT22;8091;51.914;12.786;2022-08-19T05:39:35;21.00;99.90
15977;DHT22;8091;51.914;12.786;2022-08-19T05:42:07;21.10;99.90
15977;DHT22;8091;51.914;12.786;2022-08-19T05:44:37;21.10;99.90
15977;DHT22;8091;51.914;12.786;2022-08-19T05:47:06;21.10;99.90
15977;DHT22;8091;51.914;12.786;2022-08-19T05:49:34;21.10;99.90
15977;DHT22;8091;51.914;12.786;2022-08-19T05:52:06;21.10;99.90
15977;DHT22;8091;51.914;12.786;2022-08-19T05:54:32;21.10;99.90
15977;DHT22;8091;51.914;12.786;2022-08-19T05:56:58;21.10;99.90
15977;DHT22;8091;51.914;12.786;2022-08-19T05:59:25;21.20;99.90
15977;DHT22;8091;51.914;12.786;2022-08-19T06:01:52;21.20;99.90
15977;DHT22;8091;51.914;12.786;2022-08-19T06:04:20;21.20;99.90
15977;DHT22;8091;51.914;12.786;2022-08-19T06:06:48;21.30;99.90
15977;DHT22;8091;51.914;12.786;2022-08-19T06:09:14;21.30;99.90
15977;DHT22;8091;51.914;12.786;2022-08-19T06:11:51;21.20;99.90
15977;DHT22;8091;51.914;12.786;2022-08-19T06:14:23;21.20;99.90
15977;DHT22;8091;51.914;12.786;2022-08-19T06:16:49;21.30;99.90
15977;DHT22;8091;51.914;12.786;2022-08-19T06:19:20;21.30;99.90
15977;DHT22;8091;51.914;12.786;2022-08-19T06:21:47;21.30;99.90
15977;DHT22;8091;51.914;12.786;2022-08-19T06:24:16;21.30;99.90
15977;DHT22;8091;51.914;12.786;2022-08-19T06:26:45;21.40;99.90
15977;DHT22;8091;51.914;12.786;2022-08-19T06:29:13;21.30;99.90
15977;DHT22;8091;51.914;12.786;2022-08-19T06:31:45;21.30;99.90
15977;DHT22;8091;51.914;12.786;2022-08-19T06:34:12;21.30;99.90
15977;DHT22;8091;51.914;12.786;2022-08-19T06:36:42;21.30;99.90
15977;DHT22;8091;51.914;12.786;2022-08-19T06:39:14;21.30;99.90
15977;DHT22;8091;51.914;12.786;2022-08-19T06:41:46;21.30;99.90
15977;DHT22;8091;51.914;12.786;2022-08-19T06:44:12;21.30;99.90
15977;DHT22;8091;51.914;12.786;2022-08-19T06:46:38;21.30;99.90
15977;DHT22;8091;51.914;12.786;2022-08-19T06:49:04;21.30;99.90
15977;DHT22;8091;51.914;12.786;2022-08-19T06:51:30;21.30;99.90
15977;DHT22;8091;51.914;12.786;2022-08-19T06:53:58;21.30;99.90
15977;DHT22;8091;51.914;12.786;2022-08-19T06:56:27;21.30;99.90
15977;DHT22;8091;51.914;12.786;2022-08-19T06:59:02;21.50;99.90
15977;DHT22;8091;51.914;12.786;2022-08-19T07:01:28;21.40;99.90
15977;DHT22;8091;51.914;12.786;2022-08-19T07:03:53;21.40;99.90
15977;DHT22;8091;51.914;12.786;2022-08-19T07:06:20;21.30;99.90
15977;DHT22;8091;51.914;12.786;2022-08-19T07:08:47;21.30;99.90
15977;DHT22;8091;51.914;12.786;2022-08-19T07:11:15;21.30;99.90
15977;DHT22;8091;51.914;12.786;2022-08-19T07:13:43;21.40;99.90
15977;DHT22;8091;51.914;12.786;2022-08-19T07:16:13;21.40;99.90
15977;DHT22;8091;51.914;12.786;2022-08-19T07:18:39;21.60;99.90
15977;DHT22;8091;51.914;12.786;2022-08-19T07:21:11;21.70;99.90
15977;DHT22;8091;51.914;12.786;2022-08-19T07:23:37;21.90;99.90
15977;DHT22;8091;51.914;12.786;2022-08-19T07:26:16;22.00;99.90
15977;DHT22;8091;51.914;12.786;2022-08-19T07:28:43;22.10;99.90
15977;DHT22;8091;51.914;12.786;2022-08-19T07:31:11;22.20;99.90
15977;DHT22;8091;51.914;12.786;2022-08-19T07:33:38;22.40;99.90
15977;DHT22;8091;51.914;12.786;2022-08-19T07:36:06;22.40;99.90
15977;DHT22;8091;51.914;12.786;2022-08-19T07:38:33;22.70;99.90
15977;DHT22;8091;51.914;12.786;2022-08-19T07:40:59;22.70;99.90
15977;DHT22;8091;51.914;12.786;2022-08-19T07:43:26;22.60;99.90
15977;DHT22;8091;51.914;12.786;2022-08-19T07:45:53;22.60;99.90
15977;DHT22;8091;51.914;12.786;2022-08-19T07:48:25;22.60;99.90
15977;DHT22;8091;51.914;12.786;2022-08-19T07:50:53;22.60;99.90
15977;DHT22;8091;51.914;12.786;2022-08-19T07:53:20;22.60;99.90
15977;DHT22;8091;51.914;12.786;2022-08-19T07:55:46;22.70;99.90
15977;DHT22;8091;51.914;12.786;2022-08-19T07:58:15;22.60;99.90
15977;DHT22;8091;51.914;12.786;2022-08-19T08:00:42;22.60;99.90
15977;DHT22;8091;51.914;12.786;2022-08-19T08:03:08;22.70;99.90
15977;DHT22;8091;51.914;12.786;2022-08-19T08:05:34;22.60;99.90
15977;DHT22;8091;51.914;12.786;2022-08-19T08:08:18;22.50;99.90
15977;DHT22;8091;51.914;12.786;2022-08-19T08:11:03;22.60;99.90
15977;DHT22;8091;51.914;12.786;2022-08-19T08:13:29;22.70;99.90
15977;DHT22;8091;51.914;12.786;2022-08-19T08:15:56;22.70;99.90
15977;DHT22;8091;51.914;12.786;2022-08-19T08:18:25;22.80;99.90
15977;DHT22;8091;51.914;12.786;2022-08-19T08:20:51;22.70;99.90
15977;DHT22;8091;51.914;12.786;2022-08-19T08:23:16;22.60;99.90
15977;DHT22;8091;51.914;12.786;2022-08-19T08:25:48;22.60;99.90
15977;DHT22;8091;51.914;12.786;2022-08-19T08:28:16;22.60;99.90
15977;DHT22;8091;51.914;12.786;2022-08-19T08:30:42;22.40;99.90
15977;DHT22;8091;51.914;12.786;2022-08-19T08:33:09;22.50;99.90
15977;DHT22;8091;51.914;12.786;2022-08-19T08:35:35;22.40;99.90
15977;DHT22;8091;51.914;12.786;2022-08-19T08:38:01;22.50;99.90
15977;DHT22;8091;51.914;12.786;2022-08-19T08:40:49;22.40;99.90
15977;DHT22;8091;51.914;12.786;2022-08-19T08:43:31;22.40;99.90
15977;DHT22;8091;51.914;12.786;2022-08-19T08:46:12;22.30;99.90
15977;DHT22;8091;51.914;12.786;2022-08-19T08:48:54;22.20;99.90
15977;DHT22;8091;51.914;12.786;2022-08-19T08:51:25;22.20;99.90
15977;DHT22;8091;51.914;12.786;2022-08-19T08:53:53;22.20;99.90
15977;DHT22;8091;51.914;12.786;2022-08-19T08:56:20;22.20;99.90
15977;DHT22;8091;51.914;12.786;2022-08-19T09:01:36;22.20;99.90
15977;DHT22;8091;51.914;12.786;2022-08-19T09:04:05;22.30;99.90
15977;DHT22;8091;51.914;12.786;2022-08-19T09:07:21;22.40;99.90
15977;DHT22;8091;51.914;12.786;2022-08-19T09:09:33;22.40;99.90
15977;DHT22;8091;51.914;12.786;2022-08-19T09:12:31;22.30;99.90
15977;DHT22;8091;51.914;12.786;2022-08-19T09:15:10;22.40;99.90
15977;DHT22;8091;51.914;12.786;2022-08-19T09:17:36;22.40;99.90
15977;DHT22;8091;51.914;12.786;2022-08-19T09:22:37;22.50;99.90
15977;DHT22;8091;51.914;12.786;2022-08-19T09:25:07;22.60;99.90
15977;DHT22;8091;51.914;12.786;2022-08-19T09:27:32;22.90;99.90
15977;DHT22;8091;51.914;12.786;2022-08-19T09:29:58;23.10;99.90
15977;DHT22;8091;51.914;12.786;2022-08-19T09:32:24;23.20;99.90
15977;DHT22;8091;51.914;12.786;2022-08-19T09:34:51;23.40;99.90
15977;DHT22;8091;51.914;12.786;2022-08-19T09:37:20;23.30;99.90
15977;DHT22;8091;51.914;12.786;2022-08-19T09:39:46;23.40;99.90
15977;DHT22;8091;51.914;12.786;2022-08-19T09:42:12;23.60;99.90
15977;DHT22;8091;51.914;12.786;2022-08-19T09:44:42;23.60;99.90
15977;DHT22;8091;51.914;12.786;2022-08-19T09:47:10;23.30;99.90
15977;DHT22;8091;51.914;12.786;2022-08-19T09:49:37;23.20;99.90
15977;DHT22;8091;51.914;12.786;2022-08-19T09:52:04;23.30;99.90
15977;DHT22;8091;51.914;12.786;2022-08-19T09:54:30;23.30;99.90
15977;DHT22;8091;51.914;12.786;2022-08-19T09:56:58;23.20;99.90
15977;DHT22;8091;51.914;12.786;2022-08-19T09:59:25;23.10;99.90
15977;DHT22;8091;51.914;12.786;2022-08-19T10:01:51;23.10;99.90
15977;DHT22;8091;51.914;12.786;2022-08-19T10:04:17;23.20;99.90
15977;DHT22;8091;51.914;12.786;2022-08-19T10:06:43;23.40;99.90
15977;DHT22;8091;51.914;12.786;2022-08-19T10:09:10;23.40;99.90
15977;DHT22;8091;51.914;12.786;2022-08-19T10:11:39;23.50;99.90
15977;DHT22;8091;51.914;12.786;2022-08-19T10:14:06;23.50;99.90
15977;DHT22;8091;51.914;12.786;2022-08-19T10:16:32;23.40;99.90
15977;DHT22;8091;51.914;12.786;2022-08-19T10:18:58;23.20;99.90
15977;DHT22;8091;51.914;12.786;2022-08-19T10:21:27;23.10;99.90
15977;DHT22;8091;51.914;12.786;2022-08-19T10:23:56;23.10;99.90
15977;DHT22;8091;51.914;12.786;2022-08-19T10:26:28;22.90;99.90
15977;DHT22;8091;51.914;12.786;2022-08-19T10:28:55;22.90;99.90
15977;DHT22;8091;51.914;12.786;2022-08-19T10:31:27;22.90;99.90
15977;DHT22;8091;51.914;12.786;2022-08-19T10:33:54;22.60;99.90
15977;DHT22;8091;51.914;12.786;2022-08-19T10:36:31;22.60;99.90
15977;DHT22;8091;51.914;12.786;2022-08-19T10:38:59;22.60;99.90
15977;DHT22;8091;51.914;12.786;2022-08-19T10:41:29;22.60;99.90
15977;DHT22;8091;51.914;12.786;2022-08-19T10:43:58;22.70;99.90
15977;DHT22;8091;51.914;12.786;2022-08-19T10:46:26;22.80;99.90
15977;DHT22;8091;51.914;12.786;2022-08-19T10:48:53;22.80;99.90
15977;DHT22;8091;51.914;12.786;2022-08-19T10:51:20;23.00;99.90
15977;DHT22;8091;51.914;12.786;2022-08-19T10:54:05;23.00;99.90
15977;DHT22;8091;51.914;12.786;2022-08-19T10:56:31;23.10;99.90
15977;DHT22;8091;51.914;12.786;2022-08-19T10:59:18;23.20;99.90
15977;DHT22;8091;51.914;12.786;2022-08-19T11:01:45;23.40;99.90
15977;DHT22;8091;51.914;12.786;2022-08-19T11:04:12;23.50;99.90
15977;DHT22;8091;51.914;12.786;2022-08-19T11:06:41;23.40;99.90
15977;DHT22;8091;51.914;12.786;2022-08-19T11:09:09;23.40;99.90
15977;DHT22;8091;51.914;12.786;2022-08-19T11:11:36;23.40;99.90
15977;DHT22;8091;51.914;12.786;2022-08-19T11:14:06;23.60;99.90
15977;DHT22;8091;51.914;12.786;2022-08-19T11:16:32;23.70;99.90
15977;DHT22;8091;51.914;12.786;2022-08-19T11:18:59;23.80;99.90
15977;DHT22;8091;51.914;12.786;2022-08-19T11:21:33;23.70;99.90
15977;DHT22;8091;51.914;12.786;2022-08-19T11:24:05;23.90;99.90
15977;DHT22;8091;51.914;12.786;2022-08-19T11:26:32;24.00;99.90
15977;DHT22;8091;51.914;12.786;2022-08-19T11:28:59;23.90;99.90
15977;DHT22;8091;51.914;12.786;2022-08-19T11:31:27;23.70;99.90
15977;DHT22;8091;51.914;12.786;2022-08-19T11:33:56;23.60;99.90
15977;DHT22;8091;51.914;12.786;2022-08-19T11:36:22;23.40;99.90
15977;DHT22;8091;51.914;12.786;2022-08-19T11:38:49;23.40;99.90
15977;DHT22;8091;51.914;12.786;2022-08-19T11:41:17;23.40;99.90
15977;DHT22;8091;51.914;12.786;2022-08-19T11:43:43;23.30;99.90
15977;DHT22;8091;51.914;12.786;2022-08-19T11:46:10;23.30;99.90
15977;DHT22;8091;51.914;12.786;2022-08-19T11:48:37;23.10;99.90
15977;DHT22;8091;51.914;12.786;2022-08-19T11:51:06;23.00;99.90
15977;DHT22;8091;51.914;12.786;2022-08-19T11:53:32;22.90;99.90
15977;DHT22;8091;51.914;12.786;2022-08-19T11:55:58;22.70;99.90
15977;DHT22;8091;51.914;12.786;2022-08-19T11:58:24;22.80;99.90
15977;DHT22;8091;51.914;12.786;2022-08-19T12:00:51;22.80;99.90
15977;DHT22;8091;51.914;12.786;2022-08-19T12:03:16;22.90;99.90
15977;DHT22;8091;51.914;12.786;2022-08-19T12:05:43;22.90;99.90
15977;DHT22;8091;51.914;12.786;2022-08-19T12:08:09;23.00;99.90
15977;DHT22;8091;51.914;12.786;2022-08-19T12:10:36;23.10;99.90
15977;DHT22;8091;51.914;12.786;2022-08-19T12:13:02;23.20;99.90
15977;DHT22;8091;51.914;12.786;2022-08-19T12:15:28;23.50;99.90
15977;DHT22;8091;51.914;12.786;2022-08-19T12:17:55;23.60;99.90
15977;DHT22;8091;51.914;12.786;2022-08-19T12:20:23;23.70;99.90
15977;DHT22;8091;51.914;12.786;2022-08-19T12:22:49;23.60;99.90
15977;DHT22;8091;51.914;12.786;2022-08-19T12:25:15;23.60;99.90
15977;DHT22;8091;51.914;12.786;2022-08-19T12:27:41;23.40;99.90
15977;DHT22;8091;51.914;12.786;2022-08-19T12:30:09;23.40;99.90
15977;DHT22;8091;51.914;12.786;2022-08-19T12:32:35;23.50;99.90
15977;DHT22;8091;51.914;12.786;2022-08-19T12:35:00;23.40;99.90
15977;DHT22;8091;51.914;12.786;2022-08-19T12:37:26;23.50;99.90
15977;DHT22;8091;51.914;12.786;2022-08-19T12:39:52;23.50;99.90
15977;DHT22;8091;51.914;12.786;2022-08-19T12:42:18;23.40;99.90
15977;DHT22;8091;51.914;12.786;2022-08-19T12:44:44;23.40;99.90
15977;DHT22;8091;51.914;12.786;2022-08-19T12:47:12;23.40;99.90
15977;DHT22;8091;51.914;12.786;2022-08-19T12:49:39;23.50;99.90
15977;DHT22;8091;51.914;12.786;2022-08-19T12:52:06;23.30;99.90
15977;DHT22;8091;51.914;12.786;2022-08-19T12:54:34;23.30;99.90
15977;DHT22;8091;51.914;12.786;2022-08-19T12:56:59;23.30;99.90
15977;DHT22;8091;51.914;12.786;2022-08-19T12:59:26;23.20;99.90
15977;DHT22;8091;51.914;12.786;2022-08-19T13:01:52;23.20;99.90
15977;DHT22;8091;51.914;12.786;2022-08-19T13:04:18;23.30;99.90
15977;DHT22;8091;51.914;12.786;2022-08-19T13:06:44;23.30;99.90
15977;DHT22;8091;51.914;12.786;2022-08-19T13:09:10;23.30;99.90
15977;DHT22;8091;51.914;12.786;2022-08-19T13:11:37;23.30;99.90
15977;DHT22;8091;51.914;12.786;2022-08-19T13:14:03;23.40;99.90
15977;DHT22;8091;51.914;12.786;2022-08-19T13:16:30;23.40;99.90
15977;DHT22;8091;51.914;12.786;2022-08-19T13:18:56;23.50;99.90
15977;DHT22;8091;51.914;12.786;2022-08-19T13:21:25;23.60;99.90
15977;DHT22;8091;51.914;12.786;2022-08-19T13:23:52;23.70;99.90
15977;DHT22;8091;51.914;12.786;2022-08-19T13:26:18;23.80;99.90
15977;DHT22;8091;51.914;12.786;2022-08-19T13:28:45;23.80;99.90
15977;DHT22;8091;51.914;12.786;2022-08-19T13:31:31;23.70;99.90
15977;DHT22;8091;51.914;12.786;2022-08-19T13:34:18;23.80;99.90
15977;DHT22;8091;51.914;12.786;2022-08-19T13:36:45;23.60;99.90
15977;DHT22;8091;51.914;12.786;2022-08-19T13:39:11;23.80;99.90
15977;DHT22;8091;51.914;12.786;2022-08-19T13:41:44;23.70;99.90
15977;DHT22;8091;51.914;12.786;2022-08-19T13:44:13;23.60;99.90
15977;DHT22;8091;51.914;12.786;2022-08-19T13:46:39;23.60;99.90
15977;DHT22;8091;51.914;12.786;2022-08-19T13:49:04;23.70;99.90
15977;DHT22;8091;51.914;12.786;2022-08-19T13:51:30;23.60;99.90
15977;DHT22;8091;51.914;12.786;2022-08-19T13:53:56;23.50;99.90
15977;DHT22;8091;51.914;12.786;2022-08-19T13:56:21;23.40;99.90
15977;DHT22;8091;51.914;12.786;2022-08-19T13:58:47;23.40;99.90
15977;DHT22;8091;51.914;12.786;2022-08-19T14:01:19;23.60;99.90
15977;DHT22;8091;51.914;12.786;2022-08-19T14:03:45;23.70;99.90
15977;DHT22;8091;51.914;12.786;2022-08-19T14:06:10;23.70;99.90
15977;DHT22;8091;51.914;12.786;2022-08-19T14:08:36;24.00;99.90
15977;DHT22;8091;51.914;12.786;2022-08-19T14:11:04;24.20;99.90
15977;DHT22;8091;51.914;12.786;2022-08-19T14:13:30;24.50;99.90
15977;DHT22;8091;51.914;12.786;2022-08-19T14:15:59;24.70;99.90
15977;DHT22;8091;51.914;12.786;2022-08-19T14:18:24;24.70;99.90
15977;DHT22;8091;51.914;12.786;2022-08-19T14:20:51;24.40;12.80
15977;DHT22;8091;51.914;12.786;2022-08-19T14:23:16;24.40;99.90
15977;DHT22;8091;51.914;12.786;2022-08-19T14:25:43;24.40;1.00
15977;DHT22;8091;51.914;12.786;2022-08-19T14:28:08;24.40;1.00
15977;DHT22;8091;51.914;12.786;2022-08-19T14:30:35;24.30;99.90
15977;DHT22;8091;51.914;12.786;2022-08-19T14:33:03;24.20;99.90
15977;DHT22;8091;51.914;12.786;2022-08-19T14:35:32;24.20;99.90
15977;DHT22;8091;51.914;12.786;2022-08-19T14:38:03;24.30;99.90
15977;DHT22;8091;51.914;12.786;2022-08-19T14:40:30;24.40;99.90
15977;DHT22;8091;51.914;12.786;2022-08-19T14:42:58;24.50;1.00
15977;DHT22;8091;51.914;12.786;2022-08-19T14:45:31;24.50;99.90
15977;DHT22;8091;51.914;12.786;2022-08-19T14:47:57;24.50;1.00
15977;DHT22;8091;51.914;12.786;2022-08-19T14:50:25;24.80;99.90
15977;DHT22;8091;51.914;12.786;2022-08-19T14:52:58;24.90;1.00
15977;DHT22;8091;51.914;12.786;2022-08-19T14:55:25;24.80;1.00
15977;DHT22;8091;51.914;12.786;2022-08-19T14:57:51;24.90;1.00
15977;DHT22;8091;51.914;12.786;2022-08-19T15:00:16;24.70;1.00
15977;DHT22;8091;51.914;12.786;2022-08-19T15:02:42;24.70;58.60
15977;DHT22;8091;51.914;12.786;2022-08-19T15:05:11;24.60;99.90
15977;DHT22;8091;51.914;12.786;2022-08-19T15:07:38;24.50;99.90
15977;DHT22;8091;51.914;12.786;2022-08-19T15:10:05;24.30;99.90
15977;DHT22;8091;51.914;12.786;2022-08-19T15:12:33;24.40;99.90
15977;DHT22;8091;51.914;12.786;2022-08-19T15:14:59;24.20;99.90
15977;DHT22;8091;51.914;12.786;2022-08-19T15:17:25;24.10;99.90
15977;DHT22;8091;51.914;12.786;2022-08-19T15:19:51;24.00;99.90
15977;DHT22;8091;51.914;12.786;2022-08-19T15:22:17;23.90;99.90
15977;DHT22;8091;51.914;12.786;2022-08-19T15:24:43;23.80;99.90
15977;DHT22;8091;51.914;12.786;2022-08-19T15:27:12;23.90;99.90
15977;DHT22;8091;51.914;12.786;2022-08-19T15:29:38;23.90;99.90
15977;DHT22;8091;51.914;12.786;2022-08-19T15:32:05;24.00;1.00
15977;DHT22;8091;51.914;12.786;2022-08-19T15:34:32;24.10;1.00
15977;DHT22;8091;51.914;12.786;2022-08-19T15:36:57;24.00;1.00
15977;DHT22;8091;51.914;12.786;2022-08-19T15:39:24;24.00;99.90
15977;DHT22;8091;51.914;12.786;2022-08-19T15:41:50;23.90;99.90
15977;DHT22;8091;51.914;12.786;2022-08-19T15:44:17;23.90;99.90